Station History

Weather Underground - logo

Station Historical Data
Daily Summary for February 21, 2018 Units:  Both    English   Metric
« Previous Day
Next Day »
Daily Weekly Monthly Yearly Custom
  High: Low: Average:
Temperature: 58.0 °F /  14.4 °C 29.9 °F /  -1.2 °C 43.8 °F /  6.6 °C
Dew Point: 33.2 °F /  0.7 °C 21.5 °F /  -5.8 °C 27.9 °F /  -2.3 °C
Humidity: 89 % 26 % 58 %
Wind Speed: 4.6 mph /  7.4 km/h - 1 mph /  1.6 km/h
Wind Gust: 4.6 mph /  7.4 km/h - -
Wind:- - WSW
Pressure: 30.23 in /  1023.6 hPa 30.16 in /  1021.2 hPa -
Precipitation: 0.00 in /  0 mm    
Historical Graphs
 
 
Tabular Data for February 21, 2018
Time Temperature Dew Point Pressure Wind Wind Speed Wind Gust Humidity Rainfall Rate (Hourly)
00:03 41.5 °F /  5.3 °C 29.8 °F /  -1.2 °C 30.20 in /  1022.6 hPa Calm     63 % 0.00 in /  0 mm
00:08 41.3 °F /  5.2 °C 30.0 °F /  -1.1 °C 30.20 in /  1022.6 hPa Calm     64 % 0.00 in /  0 mm
00:13 41.2 °F /  5.1 °C 29.9 °F /  -1.2 °C 30.20 in /  1022.6 hPa Calm     64 % 0.00 in /  0 mm
00:18 41.1 °F /  5.1 °C 29.8 °F /  -1.2 °C 30.19 in /  1022.2 hPa Calm     64 % 0.00 in /  0 mm
00:23 41.0 °F /  5 °C 30.1 °F /  -1.1 °C 30.19 in /  1022.2 hPa Calm     65 % 0.00 in /  0 mm
00:28 41.0 °F /  5 °C 30.1 °F /  -1.1 °C 30.19 in /  1022.2 hPa Calm     65 % 0.00 in /  0 mm
00:33 41.3 °F /  5.2 °C 30.4 °F /  -0.9 °C 30.19 in /  1022.2 hPa Calm     65 % 0.00 in /  0 mm
00:38 41.3 °F /  5.2 °C 31.9 °F /  -0.1 °C 30.19 in /  1022.2 hPa Calm     69 % 0.00 in /  0 mm
00:43 41.0 °F /  5 °C 32.3 °F /  0.2 °C 30.19 in /  1022.2 hPa Calm     71 % 0.00 in /  0 mm
00:48 40.7 °F /  4.8 °C 32.4 °F /  0.2 °C 30.19 in /  1022.2 hPa Calm     72 % 0.00 in /  0 mm
00:53 40.5 °F /  4.7 °C 32.5 °F /  0.3 °C 30.19 in /  1022.2 hPa Calm     73 % 0.00 in /  0 mm
00:58 40.3 °F /  4.6 °C 32.7 °F /  0.4 °C 30.19 in /  1022.2 hPa Calm     74 % 0.00 in /  0 mm
01:03 40.1 °F /  4.5 °C 32.8 °F /  0.4 °C 30.19 in /  1022.2 hPa Calm     75 % 0.00 in /  0 mm
01:08 39.8 °F /  4.3 °C 33.2 °F /  0.7 °C 30.19 in /  1022.2 hPa Calm     77 % 0.00 in /  0 mm
01:13 39.5 °F /  4.2 °C 32.9 °F /  0.5 °C 30.19 in /  1022.2 hPa Calm     77 % 0.00 in /  0 mm
01:18 39.1 °F /  3.9 °C 32.5 °F /  0.3 °C 30.18 in /  1021.9 hPa Calm     77 % 0.00 in /  0 mm
01:23 38.8 °F /  3.8 °C 32.5 °F /  0.3 °C 30.18 in /  1021.9 hPa Calm     78 % 0.00 in /  0 mm
01:29 38.4 °F /  3.6 °C 32.5 °F /  0.3 °C 30.18 in /  1021.9 hPa Calm     79 % 0.00 in /  0 mm
01:34 38.1 °F /  3.4 °C 32.8 °F /  0.4 °C 30.18 in /  1021.9 hPa Calm     81 % 0.00 in /  0 mm
01:39 37.5 °F /  3.1 °C 32.2 °F /  0.1 °C 30.18 in /  1021.9 hPa Calm     81 % 0.00 in /  0 mm
01:43 37.1 °F /  2.8 °C 32.4 °F /  0.2 °C 30.18 in /  1021.9 hPa Calm     83 % 0.00 in /  0 mm
01:49 37.0 °F /  2.8 °C 32.6 °F /  0.3 °C 30.18 in /  1021.9 hPa Calm     84 % 0.00 in /  0 mm
01:54 36.8 °F /  2.7 °C 32.4 °F /  0.2 °C 30.18 in /  1021.9 hPa Calm     84 % 0.00 in /  0 mm
01:59 36.6 °F /  2.6 °C 32.2 °F /  0.1 °C 30.18 in /  1021.9 hPa Calm     84 % 0.00 in /  0 mm
02:04 36.3 °F /  2.4 °C 31.9 °F /  -0.1 °C 30.18 in /  1021.9 hPa Calm     84 % 0.00 in /  0 mm
02:09 36.1 °F /  2.3 °C 31.7 °F /  -0.2 °C 30.18 in /  1021.9 hPa Calm     84 % 0.00 in /  0 mm
02:14 36.0 °F /  2.2 °C 31.6 °F /  -0.2 °C 30.19 in /  1022.2 hPa Calm     84 % 0.00 in /  0 mm
02:19 35.9 °F /  2.2 °C 31.2 °F /  -0.4 °C 30.18 in /  1021.9 hPa Calm     83 % 0.00 in /  0 mm
02:24 35.7 °F /  2.1 °C 30.7 °F /  -0.7 °C 30.18 in /  1021.9 hPa Calm     82 % 0.00 in /  0 mm
02:29 35.6 °F /  2 °C 30.6 °F /  -0.8 °C 30.18 in /  1021.9 hPa Calm     82 % 0.00 in /  0 mm
02:34 35.2 °F /  1.8 °C 30.6 °F /  -0.8 °C 30.18 in /  1021.9 hPa ESE 1.2 mph /  1.9 km/h   83 % 0.00 in /  0 mm
02:39 35.2 °F /  1.8 °C 30.6 °F /  -0.8 °C 30.18 in /  1021.9 hPa Calm     83 % 0.00 in /  0 mm
02:44 35.4 °F /  1.9 °C 30.5 °F /  -0.8 °C 30.18 in /  1021.9 hPa Calm     82 % 0.00 in /  0 mm
02:49 35.3 °F /  1.8 °C 30.1 °F /  -1.1 °C 30.18 in /  1021.9 hPa Calm     81 % 0.00 in /  0 mm
02:54 34.9 °F /  1.6 °C 29.7 °F /  -1.3 °C 30.17 in /  1021.6 hPa Calm     81 % 0.00 in /  0 mm
02:59 34.5 °F /  1.4 °C 29.3 °F /  -1.5 °C 30.17 in /  1021.6 hPa Calm     81 % 0.00 in /  0 mm
03:04 34.2 °F /  1.2 °C 29.0 °F /  -1.7 °C 30.17 in /  1021.6 hPa Calm     81 % 0.00 in /  0 mm
03:09 34.2 °F /  1.2 °C 29.3 °F /  -1.5 °C 30.17 in /  1021.6 hPa ESE 1.0 mph /  1.6 km/h   82 % 0.00 in /  0 mm
03:14 34.3 °F /  1.3 °C 29.1 °F /  -1.6 °C 30.17 in /  1021.6 hPa Calm     81 % 0.00 in /  0 mm
03:19 34.3 °F /  1.3 °C 29.1 °F /  -1.6 °C 30.17 in /  1021.6 hPa Calm     81 % 0.00 in /  0 mm
03:24 34.3 °F /  1.3 °C 28.8 °F /  -1.8 °C 30.17 in /  1021.6 hPa Calm     80 % 0.00 in /  0 mm
03:29 34.1 °F /  1.2 °C 28.6 °F /  -1.9 °C 30.17 in /  1021.6 hPa Calm     80 % 0.00 in /  0 mm
03:34 33.9 °F /  1.1 °C 28.4 °F /  -2 °C 30.17 in /  1021.6 hPa Calm     80 % 0.00 in /  0 mm
03:39 33.7 °F /  0.9 °C 28.2 °F /  -2.1 °C 30.17 in /  1021.6 hPa Calm     80 % 0.00 in /  0 mm
03:44 33.5 °F /  0.8 °C 28.3 °F /  -2.1 °C 30.17 in /  1021.6 hPa Calm     81 % 0.00 in /  0 mm
03:49 33.3 °F /  0.7 °C 28.1 °F /  -2.2 °C 30.17 in /  1021.6 hPa Calm     81 % 0.00 in /  0 mm
03:54 33.2 °F /  0.7 °C 28.0 °F /  -2.2 °C 30.17 in /  1021.6 hPa Calm     81 % 0.00 in /  0 mm
03:59 32.9 °F /  0.5 °C 28.0 °F /  -2.2 °C 30.17 in /  1021.6 hPa Calm     82 % 0.00 in /  0 mm
04:04 32.7 °F /  0.4 °C 28.1 °F /  -2.2 °C 30.18 in /  1021.9 hPa Calm     83 % 0.00 in /  0 mm
04:09 32.8 °F /  0.4 °C 28.2 °F /  -2.1 °C 30.17 in /  1021.6 hPa Calm     83 % 0.00 in /  0 mm
04:14 32.7 °F /  0.4 °C 27.8 °F /  -2.3 °C 30.17 in /  1021.6 hPa Calm     82 % 0.00 in /  0 mm
04:19 32.7 °F /  0.4 °C 27.8 °F /  -2.3 °C 30.18 in /  1021.9 hPa Calm     82 % 0.00 in /  0 mm
04:24 32.6 °F /  0.3 °C 27.7 °F /  -2.4 °C 30.18 in /  1021.9 hPa Calm     82 % 0.00 in /  0 mm
04:29 32.6 °F /  0.3 °C 27.7 °F /  -2.4 °C 30.18 in /  1021.9 hPa Calm     82 % 0.00 in /  0 mm
04:34 32.5 °F /  0.3 °C 27.9 °F /  -2.3 °C 30.18 in /  1021.9 hPa Calm     83 % 0.00 in /  0 mm
04:39 32.3 °F /  0.2 °C 27.7 °F /  -2.4 °C 30.18 in /  1021.9 hPa Calm     83 % 0.00 in /  0 mm
04:44 32.1 °F /  0.1 °C 27.5 °F /  -2.5 °C 30.18 in /  1021.9 hPa Calm     83 % 0.00 in /  0 mm
04:49 32.2 °F /  0.1 °C 28.2 °F /  -2.1 °C 30.18 in /  1021.9 hPa Calm     85 % 0.00 in /  0 mm
04:54 32.2 °F /  0.1 °C 27.9 °F /  -2.3 °C 30.18 in /  1021.9 hPa Calm     84 % 0.00 in /  0 mm
04:59 32.1 °F /  0.1 °C 27.5 °F /  -2.5 °C 30.18 in /  1021.9 hPa Calm     83 % 0.00 in /  0 mm
05:05 32.2 °F /  0.1 °C 27.9 °F /  -2.3 °C 30.18 in /  1021.9 hPa Calm     84 % 0.00 in /  0 mm
05:10 32.3 °F /  0.2 °C 27.7 °F /  -2.4 °C 30.19 in /  1022.2 hPa Calm     83 % 0.00 in /  0 mm
05:15 32.5 °F /  0.3 °C 27.6 °F /  -2.4 °C 30.19 in /  1022.2 hPa Calm     82 % 0.00 in /  0 mm
05:20 32.5 °F /  0.3 °C 27.6 °F /  -2.4 °C 30.19 in /  1022.2 hPa Calm     82 % 0.00 in /  0 mm
05:25 32.5 °F /  0.3 °C 27.6 °F /  -2.4 °C 30.19 in /  1022.2 hPa Calm     82 % 0.00 in /  0 mm
05:30 32.4 °F /  0.2 °C 27.5 °F /  -2.5 °C 30.19 in /  1022.2 hPa Calm     82 % 0.00 in /  0 mm
05:35 32.4 °F /  0.2 °C 27.5 °F /  -2.5 °C 30.19 in /  1022.2 hPa Calm     82 % 0.00 in /  0 mm
05:40 32.5 °F /  0.3 °C 27.6 °F /  -2.4 °C 30.20 in /  1022.6 hPa Calm     82 % 0.00 in /  0 mm
05:45 32.5 °F /  0.3 °C 27.3 °F /  -2.6 °C 30.19 in /  1022.2 hPa Calm     81 % 0.00 in /  0 mm
05:50 32.5 °F /  0.3 °C 27.3 °F /  -2.6 °C 30.19 in /  1022.2 hPa Calm     81 % 0.00 in /  0 mm
05:55 32.3 °F /  0.2 °C 27.1 °F /  -2.7 °C 30.19 in /  1022.2 hPa Calm     81 % 0.00 in /  0 mm
06:00 32.1 °F /  0.1 °C 26.9 °F /  -2.8 °C 30.19 in /  1022.2 hPa Calm     81 % 0.00 in /  0 mm
06:05 31.8 °F /  -0.1 °C 26.6 °F /  -3 °C 30.20 in /  1022.6 hPa Calm     81 % 0.00 in /  0 mm
06:10 31.8 °F /  -0.1 °C 26.9 °F /  -2.8 °C 30.20 in /  1022.6 hPa Calm     82 % 0.00 in /  0 mm
06:15 32.1 °F /  0.1 °C 27.2 °F /  -2.7 °C 30.20 in /  1022.6 hPa Calm     82 % 0.00 in /  0 mm
06:20 32.0 °F /  0 °C 27.1 °F /  -2.7 °C 30.20 in /  1022.6 hPa Calm     82 % 0.00 in /  0 mm
06:25 31.7 °F /  -0.2 °C 27.1 °F /  -2.7 °C 30.20 in /  1022.6 hPa Calm     83 % 0.00 in /  0 mm
06:30 31.3 °F /  -0.4 °C 27.0 °F /  -2.8 °C 30.21 in /  1022.9 hPa Calm     84 % 0.00 in /  0 mm
06:35 31.0 °F /  -0.6 °C 27.0 °F /  -2.8 °C 30.21 in /  1022.9 hPa Calm     85 % 0.00 in /  0 mm
06:40 30.7 °F /  -0.7 °C 27.0 °F /  -2.8 °C 30.21 in /  1022.9 hPa Calm     86 % 0.00 in /  0 mm
06:45 30.4 °F /  -0.9 °C 26.7 °F /  -2.9 °C 30.22 in /  1023.2 hPa Calm     86 % 0.00 in /  0 mm
06:50 30.2 °F /  -1 °C 26.8 °F /  -2.9 °C 30.22 in /  1023.2 hPa Calm     87 % 0.00 in /  0 mm
06:55 30.0 °F /  -1.1 °C 26.6 °F /  -3 °C 30.22 in /  1023.2 hPa Calm     87 % 0.00 in /  0 mm
07:00 29.9 °F /  -1.2 °C 26.5 °F /  -3.1 °C 30.22 in /  1023.2 hPa Calm     87 % 0.00 in /  0 mm
07:05 30.0 °F /  -1.1 °C 26.9 °F /  -2.8 °C 30.22 in /  1023.2 hPa Calm     88 % 0.00 in /  0 mm
07:10 30.1 °F /  -1.1 °C 27.0 °F /  -2.8 °C 30.22 in /  1023.2 hPa Calm     88 % 0.00 in /  0 mm
07:15 30.2 °F /  -1 °C 27.3 °F /  -2.6 °C 30.22 in /  1023.2 hPa Calm     89 % 0.00 in /  0 mm
07:20 30.5 °F /  -0.8 °C 27.6 °F /  -2.4 °C 30.22 in /  1023.2 hPa Calm     89 % 0.00 in /  0 mm
07:25 31.2 °F /  -0.4 °C 28.1 °F /  -2.2 °C 30.22 in /  1023.2 hPa Calm     88 % 0.00 in /  0 mm
07:30 31.9 °F /  -0.1 °C 28.5 °F /  -1.9 °C 30.22 in /  1023.2 hPa Calm     87 % 0.00 in /  0 mm
07:35 32.5 °F /  0.3 °C 28.5 °F /  -1.9 °C 30.22 in /  1023.2 hPa Calm     85 % 0.00 in /  0 mm
07:40 33.2 °F /  0.7 °C 28.9 °F /  -1.7 °C 30.22 in /  1023.2 hPa Calm     84 % 0.00 in /  0 mm
07:45 34.6 °F /  1.4 °C 30.3 °F /  -0.9 °C 30.22 in /  1023.2 hPa SE 1.0 mph /  1.6 km/h 1.0 mph /  1.6 km/h 84 % 0.00 in /  0 mm
07:50 36.0 °F /  2.2 °C 31.0 °F /  -0.6 °C 30.22 in /  1023.2 hPa Calm     82 % 0.00 in /  0 mm
07:55 37.2 °F /  2.9 °C 31.6 °F /  -0.2 °C 30.22 in /  1023.2 hPa ESE 1.2 mph /  1.9 km/h 1.2 mph /  1.9 km/h 80 % 0.00 in /  0 mm
08:00 38.1 °F /  3.4 °C 32.2 °F /  0.1 °C 30.22 in /  1023.2 hPa Calm     79 % 0.00 in /  0 mm
08:05 38.9 °F /  3.8 °C 32.0 °F /  0 °C 30.22 in /  1023.2 hPa Calm     76 % 0.00 in /  0 mm
08:10 39.4 °F /  4.1 °C 32.5 °F /  0.3 °C 30.22 in /  1023.2 hPa Calm     76 % 0.00 in /  0 mm
08:15 40.5 °F /  4.7 °C 32.9 °F /  0.5 °C 30.22 in /  1023.2 hPa Calm     74 % 0.00 in /  0 mm
08:20 41.2 °F /  5.1 °C 32.2 °F /  0.1 °C 30.22 in /  1023.2 hPa SSE 1.2 mph /  1.9 km/h 1.2 mph /  1.9 km/h 70 % 0.00 in /  0 mm
08:25 41.7 °F /  5.4 °C 31.9 °F /  -0.1 °C 30.22 in /  1023.2 hPa SE 1.2 mph /  1.9 km/h 1.2 mph /  1.9 km/h 68 % 0.00 in /  0 mm
08:30 42.2 °F /  5.7 °C 30.9 °F /  -0.6 °C 30.22 in /  1023.2 hPa SE 3.5 mph /  5.6 km/h 3.5 mph /  5.6 km/h 64 % 0.00 in /  0 mm
08:35 42.8 °F /  6 °C 30.7 °F /  -0.7 °C 30.22 in /  1023.2 hPa South 2.3 mph /  3.7 km/h 2.3 mph /  3.7 km/h 62 % 0.00 in /  0 mm
08:40 44.0 °F /  6.7 °C 31.8 °F /  -0.1 °C 30.22 in /  1023.2 hPa SSW 2.3 mph /  3.7 km/h 2.3 mph /  3.7 km/h 62 % 0.00 in /  0 mm
08:45 44.7 °F /  7.1 °C 29.5 °F /  -1.4 °C 30.22 in /  1023.2 hPa SSE 2.3 mph /  3.7 km/h 2.3 mph /  3.7 km/h 55 % 0.00 in /  0 mm
08:50 45.5 °F /  7.5 °C 28.9 °F /  -1.7 °C 30.22 in /  1023.2 hPa SE 3.5 mph /  5.6 km/h 3.5 mph /  5.6 km/h 52 % 0.00 in /  0 mm
08:55 46.1 °F /  7.8 °C 28.5 °F /  -1.9 °C 30.22 in /  1023.2 hPa Calm   0.5 mph /  0.8 km/h 50 % 0.00 in /  0 mm
09:00 46.4 °F /  8 °C 27.8 °F /  -2.3 °C 30.22 in /  1023.2 hPa NE 1.2 mph /  1.9 km/h 1.2 mph /  1.9 km/h 48 % 0.00 in /  0 mm
09:05 46.7 °F /  8.2 °C 28.5 °F /  -1.9 °C 30.22 in /  1023.2 hPa SSE 3.5 mph /  5.6 km/h 3.5 mph /  5.6 km/h 49 % 0.00 in /  0 mm
09:10 47.1 °F /  8.4 °C 28.4 °F /  -2 °C 30.22 in /  1023.2 hPa NNW 2.3 mph /  3.7 km/h 2.3 mph /  3.7 km/h 48 % 0.00 in /  0 mm
09:15 47.5 °F /  8.6 °C 28.8 °F /  -1.8 °C 30.22 in /  1023.2 hPa Calm   0.2 mph /  0.3 km/h 48 % 0.00 in /  0 mm
09:20 47.6 °F /  8.7 °C 28.3 °F /  -2.1 °C 30.22 in /  1023.2 hPa SSE 3.5 mph /  5.6 km/h 3.5 mph /  5.6 km/h 47 % 0.00 in /  0 mm
09:25 48.0 °F /  8.9 °C 29.2 °F /  -1.6 °C 30.22 in /  1023.2 hPa SSW 2.3 mph /  3.7 km/h 2.3 mph /  3.7 km/h 48 % 0.00 in /  0 mm
09:30 48.0 °F /  8.9 °C 28.7 °F /  -1.8 °C 30.22 in /  1023.2 hPa NNW 2.3 mph /  3.7 km/h 2.3 mph /  3.7 km/h 47 % 0.00 in /  0 mm
09:35 48.1 °F /  8.9 °C 28.8 °F /  -1.8 °C 30.22 in /  1023.2 hPa SSE 3.5 mph /  5.6 km/h 3.5 mph /  5.6 km/h 47 % 0.00 in /  0 mm
09:40 48.8 °F /  9.3 °C 28.9 °F /  -1.7 °C 30.22 in /  1023.2 hPa SSE 2.3 mph /  3.7 km/h 2.3 mph /  3.7 km/h 46 % 0.00 in /  0 mm
09:45 49.3 °F /  9.6 °C 28.3 °F /  -2.1 °C 30.22 in /  1023.2 hPa ESE 3.5 mph /  5.6 km/h 3.5 mph /  5.6 km/h 44 % 0.00 in /  0 mm
09:50 49.8 °F /  9.9 °C 28.2 °F /  -2.1 °C 30.22 in /  1023.2 hPa South 2.3 mph /  3.7 km/h 2.3 mph /  3.7 km/h 43 % 0.00 in /  0 mm
09:56 50.3 °F /  10.2 °C 28.1 °F /  -2.2 °C 30.22 in /  1023.2 hPa SSE 3.5 mph /  5.6 km/h 3.5 mph /  5.6 km/h 42 % 0.00 in /  0 mm
10:01 50.6 °F /  10.3 °C 29.5 °F /  -1.4 °C 30.22 in /  1023.2 hPa SSW 3.5 mph /  5.6 km/h 3.5 mph /  5.6 km/h 44 % 0.00 in /  0 mm
10:06 50.0 °F /  10 °C 28.4 °F /  -2 °C 30.22 in /  1023.2 hPa South 3.0 mph /  4.8 km/h 3.0 mph /  4.8 km/h 43 % 0.00 in /  0 mm
10:11 50.1 °F /  10.1 °C 27.9 °F /  -2.3 °C 30.22 in /  1023.2 hPa North 1.2 mph /  1.9 km/h 1.2 mph /  1.9 km/h 42 % 0.00 in /  0 mm
10:16 50.6 °F /  10.3 °C 28.3 °F /  -2.1 °C 30.22 in /  1023.2 hPa SSE 3.5 mph /  5.6 km/h 3.5 mph /  5.6 km/h 42 % 0.00 in /  0 mm
10:21 51.2 °F /  10.7 °C 29.4 °F /  -1.4 °C 30.23 in /  1023.6 hPa WNW 2.3 mph /  3.7 km/h 2.3 mph /  3.7 km/h 43 % 0.00 in /  0 mm
10:26 51.7 °F /  10.9 °C 29.9 °F /  -1.2 °C 30.22 in /  1023.2 hPa NW 2.3 mph /  3.7 km/h 2.3 mph /  3.7 km/h 43 % 0.00 in /  0 mm
10:31 52.3 °F /  11.3 °C 29.9 °F /  -1.2 °C 30.22 in /  1023.2 hPa South 4.6 mph /  7.4 km/h 4.6 mph /  7.4 km/h 42 % 0.00 in /  0 mm
10:36 52.4 °F /  11.3 °C 28.8 °F /  -1.8 °C 30.22 in /  1023.2 hPa SSW 1.2 mph /  1.9 km/h 1.2 mph /  1.9 km/h 40 % 0.00 in /  0 mm
10:41 52.6 °F /  11.4 °C 30.1 °F /  -1.1 °C 30.22 in /  1023.2 hPa NNW 1.2 mph /  1.9 km/h 1.2 mph /  1.9 km/h 42 % 0.00 in /  0 mm
10:46 53.0 °F /  11.7 °C 29.9 °F /  -1.2 °C 30.22 in /  1023.2 hPa NNW 3.5 mph /  5.6 km/h 3.5 mph /  5.6 km/h 41 % 0.00 in /  0 mm
10:51 52.8 °F /  11.6 °C 30.3 °F /  -0.9 °C 30.22 in /  1023.2 hPa NW 1.2 mph /  1.9 km/h 1.2 mph /  1.9 km/h 42 % 0.00 in /  0 mm
10:56 52.8 °F /  11.6 °C 29.1 °F /  -1.6 °C 30.23 in /  1023.6 hPa SSE 3.5 mph /  5.6 km/h 3.5 mph /  5.6 km/h 40 % 0.00 in /  0 mm
11:01 53.3 °F /  11.8 °C 30.8 °F /  -0.7 °C 30.22 in /  1023.2 hPa SSE 3.5 mph /  5.6 km/h 3.5 mph /  5.6 km/h 42 % 0.00 in /  0 mm
11:06 53.3 °F /  11.8 °C 28.9 °F /  -1.7 °C 30.22 in /  1023.2 hPa NNW 1.2 mph /  1.9 km/h 1.2 mph /  1.9 km/h 39 % 0.00 in /  0 mm
11:11 53.4 °F /  11.9 °C 29.7 °F /  -1.3 °C 30.22 in /  1023.2 hPa South 3.5 mph /  5.6 km/h 3.5 mph /  5.6 km/h 40 % 0.00 in /  0 mm
11:16 53.3 °F /  11.8 °C 28.9 °F /  -1.7 °C 30.22 in /  1023.2 hPa WSW 3.5 mph /  5.6 km/h 3.5 mph /  5.6 km/h 39 % 0.00 in /  0 mm
11:21 53.0 °F /  11.7 °C 28.7 °F /  -1.8 °C 30.22 in /  1023.2 hPa NW 3.5 mph /  5.6 km/h 3.5 mph /  5.6 km/h 39 % 0.00 in /  0 mm
11:26 53.3 °F /  11.8 °C 30.2 °F /  -1 °C 30.22 in /  1023.2 hPa SSE 2.3 mph /  3.7 km/h 2.3 mph /  3.7 km/h 41 % 0.00 in /  0 mm
11:31 53.5 °F /  11.9 °C 29.1 °F /  -1.6 °C 30.22 in /  1023.2 hPa NW 2.3 mph /  3.7 km/h 2.3 mph /  3.7 km/h 39 % 0.00 in /  0 mm
11:36 53.3 °F /  11.8 °C 29.6 °F /  -1.3 °C 30.21 in /  1022.9 hPa ESE 3.5 mph /  5.6 km/h 3.5 mph /  5.6 km/h 40 % 0.00 in /  0 mm
11:41 53.6 °F /  12 °C 29.2 °F /  -1.6 °C 30.21 in /  1022.9 hPa South 3.5 mph /  5.6 km/h 3.5 mph /  5.6 km/h 39 % 0.00 in /  0 mm
11:46 54.8 °F /  12.7 °C 29.7 °F /  -1.3 °C 30.21 in /  1022.9 hPa SSE 1.2 mph /  1.9 km/h 1.2 mph /  1.9 km/h 38 % 0.00 in /  0 mm
11:51 55.2 °F /  12.9 °C 28.7 °F /  -1.8 °C 30.21 in /  1022.9 hPa West 1.2 mph /  1.9 km/h   36 % 0.00 in /  0 mm
11:56 55.0 °F /  12.8 °C 28.5 °F /  -1.9 °C 30.21 in /  1022.9 hPa NNW 1.0 mph /  1.6 km/h 1.0 mph /  1.6 km/h 36 % 0.00 in /  0 mm
12:01 55.2 °F /  12.9 °C 29.4 °F /  -1.4 °C 30.20 in /  1022.6 hPa NW 4.6 mph /  7.4 km/h 4.6 mph /  7.4 km/h 37 % 0.00 in /  0 mm
12:06 55.8 °F /  13.2 °C 29.9 °F /  -1.2 °C 30.20 in /  1022.6 hPa SE 2.3 mph /  3.7 km/h 2.3 mph /  3.7 km/h 37 % 0.00 in /  0 mm
12:11 56.1 °F /  13.4 °C 27.4 °F /  -2.6 °C 30.20 in /  1022.6 hPa WNW 3.5 mph /  5.6 km/h 3.5 mph /  5.6 km/h 33 % 0.00 in /  0 mm
12:16 55.6 °F /  13.1 °C 26.2 °F /  -3.2 °C 30.20 in /  1022.6 hPa NW 3.5 mph /  5.6 km/h 3.5 mph /  5.6 km/h 32 % 0.00 in /  0 mm
12:21 55.2 °F /  12.9 °C 26.6 °F /  -3 °C 30.20 in /  1022.6 hPa NW 4.6 mph /  7.4 km/h 4.6 mph /  7.4 km/h 33 % 0.00 in /  0 mm
12:26 55.3 °F /  12.9 °C 25.9 °F /  -3.4 °C 30.20 in /  1022.6 hPa West 3.5 mph /  5.6 km/h 3.5 mph /  5.6 km/h 32 % 0.00 in /  0 mm
12:31 55.6 °F /  13.1 °C 26.9 °F /  -2.8 °C 30.19 in /  1022.2 hPa West 2.3 mph /  3.7 km/h 2.3 mph /  3.7 km/h 33 % 0.00 in /  0 mm
12:36 56.1 °F /  13.4 °C 28.1 °F /  -2.2 °C 30.19 in /  1022.2 hPa Calm   0.1 mph /  0.2 km/h 34 % 0.00 in /  0 mm
12:42 56.9 °F /  13.8 °C 27.3 °F /  -2.6 °C 30.19 in /  1022.2 hPa NW 1.2 mph /  1.9 km/h 1.2 mph /  1.9 km/h 32 % 0.00 in /  0 mm
12:46 56.6 °F /  13.7 °C 26.3 °F /  -3.2 °C 30.19 in /  1022.2 hPa NNW 4.0 mph /  6.4 km/h 4.0 mph /  6.4 km/h 31 % 0.00 in /  0 mm
12:52 56.1 °F /  13.4 °C 25.8 °F /  -3.4 °C 30.19 in /  1022.2 hPa WNW 3.5 mph /  5.6 km/h 3.5 mph /  5.6 km/h 31 % 0.00 in /  0 mm
12:57 55.9 °F /  13.3 °C 25.7 °F /  -3.5 °C 30.19 in /  1022.2 hPa WNW 3.5 mph /  5.6 km/h 3.5 mph /  5.6 km/h 31 % 0.00 in /  0 mm
13:02 56.0 °F /  13.3 °C 25.8 °F /  -3.4 °C 30.18 in /  1021.9 hPa NW 3.5 mph /  5.6 km/h 3.5 mph /  5.6 km/h 31 % 0.00 in /  0 mm
13:07 55.9 °F /  13.3 °C 24.1 °F /  -4.4 °C 30.18 in /  1021.9 hPa ESE 2.3 mph /  3.7 km/h 2.3 mph /  3.7 km/h 29 % 0.00 in /  0 mm
13:12 56.0 °F /  13.3 °C 25.8 °F /  -3.4 °C 30.18 in /  1021.9 hPa WNW 1.2 mph /  1.9 km/h 1.2 mph /  1.9 km/h 31 % 0.00 in /  0 mm
13:17 56.1 °F /  13.4 °C 25.8 °F /  -3.4 °C 30.18 in /  1021.9 hPa NW 4.6 mph /  7.4 km/h 4.6 mph /  7.4 km/h 31 % 0.00 in /  0 mm
13:22 56.2 °F /  13.4 °C 26.7 °F /  -2.9 °C 30.18 in /  1021.9 hPa NW 2.3 mph /  3.7 km/h 2.3 mph /  3.7 km/h 32 % 0.00 in /  0 mm
13:27 56.2 °F /  13.4 °C 25.1 °F /  -3.8 °C 30.18 in /  1021.9 hPa West 4.0 mph /  6.4 km/h 4.0 mph /  6.4 km/h 30 % 0.00 in /  0 mm
13:32 56.6 °F /  13.7 °C 26.3 °F /  -3.2 °C 30.18 in /  1021.9 hPa NW 2.3 mph /  3.7 km/h   31 % 0.00 in /  0 mm
13:37 56.7 °F /  13.7 °C 24.8 °F /  -4 °C 30.18 in /  1021.9 hPa SSE 2.3 mph /  3.7 km/h 2.3 mph /  3.7 km/h 29 % 0.00 in /  0 mm
13:42 56.6 °F /  13.7 °C 23.0 °F /  -5 °C 30.18 in /  1021.9 hPa West 3.5 mph /  5.6 km/h 3.5 mph /  5.6 km/h 27 % 0.00 in /  0 mm
13:47 56.7 °F /  13.7 °C 24.8 °F /  -4 °C 30.18 in /  1021.9 hPa NW 3.5 mph /  5.6 km/h 3.5 mph /  5.6 km/h 29 % 0.00 in /  0 mm
13:52 56.8 °F /  13.8 °C 24.8 °F /  -4 °C 30.17 in /  1021.6 hPa NW 3.5 mph /  5.6 km/h 3.5 mph /  5.6 km/h 29 % 0.00 in /  0 mm
13:57 56.7 °F /  13.7 °C 24.8 °F /  -4 °C 30.17 in /  1021.6 hPa NW 1.2 mph /  1.9 km/h 1.2 mph /  1.9 km/h 29 % 0.00 in /  0 mm
14:02 56.6 °F /  13.7 °C 23.0 °F /  -5 °C 30.17 in /  1021.6 hPa South 3.5 mph /  5.6 km/h 3.5 mph /  5.6 km/h 27 % 0.00 in /  0 mm
14:07 57.0 °F /  13.9 °C 24.2 °F /  -4.3 °C 30.17 in /  1021.6 hPa NW 2.3 mph /  3.7 km/h 2.3 mph /  3.7 km/h 28 % 0.00 in /  0 mm
14:12 57.4 °F /  14.1 °C 27.0 °F /  -2.8 °C 30.17 in /  1021.6 hPa Calm     31 % 0.00 in /  0 mm
14:17 57.6 °F /  14.2 °C 23.8 °F /  -4.6 °C 30.17 in /  1021.6 hPa NNW 2.3 mph /  3.7 km/h   27 % 0.00 in /  0 mm
14:22 57.7 °F /  14.3 °C 25.6 °F /  -3.6 °C 30.17 in /  1021.6 hPa SE 3.5 mph /  5.6 km/h 3.5 mph /  5.6 km/h 29 % 0.00 in /  0 mm
14:27 58.0 °F /  14.4 °C 25.0 °F /  -3.9 °C 30.17 in /  1021.6 hPa South 1.2 mph /  1.9 km/h 1.7 mph /  2.7 km/h 28 % 0.00 in /  0 mm
14:32 57.9 °F /  14.4 °C 25.0 °F /  -3.9 °C 30.17 in /  1021.6 hPa NW 2.0 mph /  3.2 km/h 2.0 mph /  3.2 km/h 28 % 0.00 in /  0 mm
14:37 57.7 °F /  14.3 °C 23.9 °F /  -4.5 °C 30.17 in /  1021.6 hPa North 3.5 mph /  5.6 km/h 3.5 mph /  5.6 km/h 27 % 0.00 in /  0 mm
14:42 57.5 °F /  14.2 °C 24.6 °F /  -4.1 °C 30.17 in /  1021.6 hPa WSW 2.3 mph /  3.7 km/h 2.3 mph /  3.7 km/h 28 % 0.00 in /  0 mm
14:47 57.4 °F /  14.1 °C 25.4 °F /  -3.7 °C 30.17 in /  1021.6 hPa West 3.5 mph /  5.6 km/h 3.5 mph /  5.6 km/h 29 % 0.00 in /  0 mm
14:52 57.2 °F /  14 °C 25.2 °F /  -3.8 °C 30.17 in /  1021.6 hPa North 4.0 mph /  6.4 km/h 4.0 mph /  6.4 km/h 29 % 0.00 in /  0 mm
14:57 57.0 °F /  13.9 °C 25.0 °F /  -3.9 °C 30.17 in /  1021.6 hPa NNW 2.3 mph /  3.7 km/h 2.3 mph /  3.7 km/h 29 % 0.00 in /  0 mm
15:02 57.0 °F /  13.9 °C 24.2 °F /  -4.3 °C 30.17 in /  1021.6 hPa WSW 3.5 mph /  5.6 km/h 3.5 mph /  5.6 km/h 28 % 0.00 in /  0 mm
15:07 56.9 °F /  13.8 °C 24.9 °F /  -3.9 °C 30.17 in /  1021.6 hPa NNW 3.5 mph /  5.6 km/h 3.5 mph /  5.6 km/h 29 % 0.00 in /  0 mm
15:13 56.9 °F /  13.8 °C 23.2 °F /  -4.9 °C 30.17 in /  1021.6 hPa WNW 3.5 mph /  5.6 km/h 3.5 mph /  5.6 km/h 27 % 0.00 in /  0 mm
15:18 56.6 °F /  13.7 °C 22.1 °F /  -5.5 °C 30.16 in /  1021.2 hPa NW 3.5 mph /  5.6 km/h 3.5 mph /  5.6 km/h 26 % 0.00 in /  0 mm
15:23 56.5 °F /  13.6 °C 23.7 °F /  -4.6 °C 30.16 in /  1021.2 hPa NW 3.5 mph /  5.6 km/h 3.5 mph /  5.6 km/h 28 % 0.00 in /  0 mm
15:28 56.6 °F /  13.7 °C 23.8 °F /  -4.6 °C 30.16 in /  1021.2 hPa SW 2.3 mph /  3.7 km/h   28 % 0.00 in /  0 mm
15:33 56.8 °F /  13.8 °C 24.8 °F /  -4 °C 30.16 in /  1021.2 hPa NW 1.2 mph /  1.9 km/h 1.2 mph /  1.9 km/h 29 % 0.00 in /  0 mm
15:38 56.8 °F /  13.8 °C 22.2 °F /  -5.4 °C 30.16 in /  1021.2 hPa NNW 1.2 mph /  1.9 km/h 1.2 mph /  1.9 km/h 26 % 0.00 in /  0 mm
15:43 56.5 °F /  13.6 °C 22.9 °F /  -5.1 °C 30.16 in /  1021.2 hPa NW 2.3 mph /  3.7 km/h 2.3 mph /  3.7 km/h 27 % 0.00 in /  0 mm
15:48 56.2 °F /  13.4 °C 23.5 °F /  -4.7 °C 30.16 in /  1021.2 hPa NW 3.5 mph /  5.6 km/h 3.5 mph /  5.6 km/h 28 % 0.00 in /  0 mm
15:53 56.0 °F /  13.3 °C 22.4 °F /  -5.3 °C 30.16 in /  1021.2 hPa NW 1.2 mph /  1.9 km/h   27 % 0.00 in /  0 mm
15:57 55.9 °F /  13.3 °C 21.5 °F /  -5.8 °C 30.16 in /  1021.2 hPa NW 2.3 mph /  3.7 km/h 2.3 mph /  3.7 km/h 26 % 0.00 in /  0 mm
16:02 55.9 °F /  13.3 °C 22.4 °F /  -5.3 °C 30.16 in /  1021.2 hPa NW 3.5 mph /  5.6 km/h 3.5 mph /  5.6 km/h 27 % 0.00 in /  0 mm
16:08 55.7 °F /  13.2 °C 22.2 °F /  -5.4 °C 30.16 in /  1021.2 hPa WNW 2.3 mph /  3.7 km/h 2.3 mph /  3.7 km/h 27 % 0.00 in /  0 mm
16:13 55.7 °F /  13.2 °C 22.2 °F /  -5.4 °C 30.16 in /  1021.2 hPa NW 1.2 mph /  1.9 km/h 1.2 mph /  1.9 km/h 27 % 0.00 in /  0 mm
16:18 55.6 °F /  13.1 °C 23.0 °F /  -5 °C 30.16 in /  1021.2 hPa NW 2.0 mph /  3.2 km/h 2.0 mph /  3.2 km/h 28 % 0.00 in /  0 mm
16:23 55.4 °F /  13 °C 22.8 °F /  -5.1 °C 30.16 in /  1021.2 hPa North 3.5 mph /  5.6 km/h 3.5 mph /  5.6 km/h 28 % 0.00 in /  0 mm
16:28 55.3 °F /  12.9 °C 21.8 °F /  -5.7 °C 30.16 in /  1021.2 hPa WNW 2.3 mph /  3.7 km/h 2.3 mph /  3.7 km/h 27 % 0.00 in /  0 mm
16:33 55.3 °F /  12.9 °C 22.7 °F /  -5.2 °C 30.16 in /  1021.2 hPa NW 3.5 mph /  5.6 km/h 3.5 mph /  5.6 km/h 28 % 0.00 in /  0 mm
16:38 55.3 °F /  12.9 °C 21.8 °F /  -5.7 °C 30.16 in /  1021.2 hPa NW 3.5 mph /  5.6 km/h 3.5 mph /  5.6 km/h 27 % 0.00 in /  0 mm
16:43 55.1 °F /  12.8 °C 21.7 °F /  -5.7 °C 30.16 in /  1021.2 hPa NW 2.3 mph /  3.7 km/h 2.3 mph /  3.7 km/h 27 % 0.00 in /  0 mm
16:48 55.1 °F /  12.8 °C 22.5 °F /  -5.3 °C 30.16 in /  1021.2 hPa NW 1.2 mph /  1.9 km/h 1.2 mph /  1.9 km/h 28 % 0.00 in /  0 mm
16:53 55.0 °F /  12.8 °C 22.4 °F /  -5.3 °C 30.16 in /  1021.2 hPa North 2.3 mph /  3.7 km/h 2.3 mph /  3.7 km/h 28 % 0.00 in /  0 mm
16:58 54.7 °F /  12.6 °C 22.2 °F /  -5.4 °C 30.16 in /  1021.2 hPa NW 2.3 mph /  3.7 km/h 2.3 mph /  3.7 km/h 28 % 0.00 in /  0 mm
17:03 54.5 °F /  12.5 °C 23.7 °F /  -4.6 °C 30.17 in /  1021.6 hPa WNW 1.2 mph /  1.9 km/h 1.2 mph /  1.9 km/h 30 % 0.00 in /  0 mm
17:08 54.3 °F /  12.4 °C 22.7 °F /  -5.2 °C 30.17 in /  1021.6 hPa WNW 1.2 mph /  1.9 km/h 1.2 mph /  1.9 km/h 29 % 0.00 in /  0 mm
17:13 54.1 °F /  12.3 °C 23.3 °F /  -4.8 °C 30.17 in /  1021.6 hPa WNW 1.2 mph /  1.9 km/h 1.2 mph /  1.9 km/h 30 % 0.00 in /  0 mm
17:18 53.7 °F /  12.1 °C 24.5 °F /  -4.2 °C 30.17 in /  1021.6 hPa WNW 1.2 mph /  1.9 km/h   32 % 0.00 in /  0 mm
17:23 53.4 °F /  11.9 °C 24.2 °F /  -4.3 °C 30.17 in /  1021.6 hPa NW 1.2 mph /  1.9 km/h 1.2 mph /  1.9 km/h 32 % 0.00 in /  0 mm
17:28 53.1 °F /  11.7 °C 24.0 °F /  -4.4 °C 30.17 in /  1021.6 hPa Calm     32 % 0.00 in /  0 mm
17:33 52.7 °F /  11.5 °C 23.6 °F /  -4.7 °C 30.17 in /  1021.6 hPa Calm     32 % 0.00 in /  0 mm
17:38 52.5 °F /  11.4 °C 23.5 °F /  -4.7 °C 30.17 in /  1021.6 hPa Calm     32 % 0.00 in /  0 mm
17:43 52.1 °F /  11.2 °C 24.6 °F /  -4.1 °C 30.17 in /  1021.6 hPa Calm     34 % 0.00 in /  0 mm
17:48 51.6 °F /  10.9 °C 24.1 °F /  -4.4 °C 30.17 in /  1021.6 hPa Calm     34 % 0.00 in /  0 mm
17:53 51.1 °F /  10.6 °C 25.7 °F /  -3.5 °C 30.17 in /  1021.6 hPa Calm     37 % 0.00 in /  0 mm
17:58 50.4 °F /  10.2 °C 26.3 °F /  -3.2 °C 30.17 in /  1021.6 hPa Calm     39 % 0.00 in /  0 mm
18:03 49.8 °F /  9.9 °C 24.5 °F /  -4.2 °C 30.17 in /  1021.6 hPa Calm     37 % 0.00 in /  0 mm
18:08 49.3 °F /  9.6 °C 25.4 °F /  -3.7 °C 30.17 in /  1021.6 hPa Calm     39 % 0.00 in /  0 mm
18:13 48.7 °F /  9.3 °C 25.4 °F /  -3.7 °C 30.17 in /  1021.6 hPa Calm     40 % 0.00 in /  0 mm
18:18 48.1 °F /  8.9 °C 27.7 °F /  -2.4 °C 30.17 in /  1021.6 hPa Calm     45 % 0.00 in /  0 mm
18:23 47.5 °F /  8.6 °C 28.3 °F /  -2.1 °C 30.17 in /  1021.6 hPa Calm     47 % 0.00 in /  0 mm
18:28 46.9 °F /  8.3 °C 28.7 °F /  -1.8 °C 30.17 in /  1021.6 hPa Calm     49 % 0.00 in /  0 mm
18:33 46.3 °F /  7.9 °C 28.7 °F /  -1.8 °C 30.17 in /  1021.6 hPa Calm     50 % 0.00 in /  0 mm
18:38 45.7 °F /  7.6 °C 28.6 °F /  -1.9 °C 30.17 in /  1021.6 hPa Calm     51 % 0.00 in /  0 mm
18:43 45.1 °F /  7.3 °C 27.6 °F /  -2.4 °C 30.17 in /  1021.6 hPa Calm     50 % 0.00 in /  0 mm
18:48 44.7 °F /  7.1 °C 30.0 °F /  -1.1 °C 30.17 in /  1021.6 hPa Calm     56 % 0.00 in /  0 mm
18:53 44.2 °F /  6.8 °C 29.9 °F /  -1.2 °C 30.17 in /  1021.6 hPa Calm     57 % 0.00 in /  0 mm
18:58 44.0 °F /  6.7 °C 31.8 °F /  -0.1 °C 30.18 in /  1021.9 hPa Calm     62 % 0.00 in /  0 mm
19:03 43.9 °F /  6.6 °C 31.7 °F /  -0.2 °C 30.18 in /  1021.9 hPa Calm     62 % 0.00 in /  0 mm
19:08 43.7 °F /  6.5 °C 30.7 °F /  -0.7 °C 30.18 in /  1021.9 hPa SSE 1.2 mph /  1.9 km/h   60 % 0.00 in /  0 mm
19:13 43.1 °F /  6.2 °C 30.1 °F /  -1.1 °C 30.18 in /  1021.9 hPa Calm     60 % 0.00 in /  0 mm
19:18 43.0 °F /  6.1 °C 30.5 °F /  -0.8 °C 30.18 in /  1021.9 hPa Calm     61 % 0.00 in /  0 mm
19:23 43.1 °F /  6.2 °C 31.0 °F /  -0.6 °C 30.18 in /  1021.9 hPa Calm     62 % 0.00 in /  0 mm
19:28 43.1 °F /  6.2 °C 30.6 °F /  -0.8 °C 30.18 in /  1021.9 hPa Calm     61 % 0.00 in /  0 mm
19:33 42.9 °F /  6.1 °C 30.0 °F /  -1.1 °C 30.18 in /  1021.9 hPa Calm     60 % 0.00 in /  0 mm
19:38 42.8 °F /  6 °C 29.5 °F /  -1.4 °C 30.18 in /  1021.9 hPa Calm     59 % 0.00 in /  0 mm
19:43 42.7 °F /  5.9 °C 29.8 °F /  -1.2 °C 30.18 in /  1021.9 hPa Calm     60 % 0.00 in /  0 mm
19:48 42.7 °F /  5.9 °C 28.5 °F /  -1.9 °C 30.18 in /  1021.9 hPa Calm     57 % 0.00 in /  0 mm
19:53 43.1 °F /  6.2 °C 28.9 °F /  -1.7 °C 30.18 in /  1021.9 hPa Calm     57 % 0.00 in /  0 mm
19:58 43.1 °F /  6.2 °C 28.9 °F /  -1.7 °C 30.18 in /  1021.9 hPa Calm     57 % 0.00 in /  0 mm
20:03 43.2 °F /  6.2 °C 27.7 °F /  -2.4 °C 30.18 in /  1021.9 hPa Calm     54 % 0.00 in /  0 mm
20:08 43.4 °F /  6.3 °C 26.9 °F /  -2.8 °C 30.18 in /  1021.9 hPa East 1.2 mph /  1.9 km/h   52 % 0.00 in /  0 mm
20:13 43.5 °F /  6.4 °C 26.6 °F /  -3 °C 30.18 in /  1021.9 hPa East 1.2 mph /  1.9 km/h   51 % 0.00 in /  0 mm
20:18 43.8 °F /  6.6 °C 26.3 °F /  -3.2 °C 30.17 in /  1021.6 hPa Calm     50 % 0.00 in /  0 mm
20:23 44.1 °F /  6.7 °C 26.1 °F /  -3.3 °C 30.17 in /  1021.6 hPa Calm     49 % 0.00 in /  0 mm
20:28 43.9 °F /  6.6 °C 25.5 °F /  -3.6 °C 30.17 in /  1021.6 hPa Calm     48 % 0.00 in /  0 mm
20:33 43.6 °F /  6.4 °C 25.7 °F /  -3.5 °C 30.17 in /  1021.6 hPa Calm     49 % 0.00 in /  0 mm
20:38 43.1 °F /  6.2 °C 25.2 °F /  -3.8 °C 30.17 in /  1021.6 hPa Calm     49 % 0.00 in /  0 mm
20:43 42.8 °F /  6 °C 27.3 °F /  -2.6 °C 30.18 in /  1021.9 hPa Calm     54 % 0.00 in /  0 mm
20:48 41.9 °F /  5.5 °C 29.4 °F /  -1.4 °C 30.18 in /  1021.9 hPa Calm     61 % 0.00 in /  0 mm
20:53 40.9 °F /  4.9 °C 29.3 °F /  -1.5 °C 30.18 in /  1021.9 hPa Calm     63 % 0.00 in /  0 mm
20:58 40.1 °F /  4.5 °C 29.6 °F /  -1.3 °C 30.19 in /  1022.2 hPa Calm     66 % 0.00 in /  0 mm
21:03 39.4 °F /  4.1 °C 29.7 °F /  -1.3 °C 30.19 in /  1022.2 hPa Calm     68 % 0.00 in /  0 mm
21:08 38.8 °F /  3.8 °C 29.1 °F /  -1.6 °C 30.19 in /  1022.2 hPa Calm     68 % 0.00 in /  0 mm
21:13 38.2 °F /  3.4 °C 28.6 °F /  -1.9 °C 30.19 in /  1022.2 hPa Calm     68 % 0.00 in /  0 mm
21:18 38.1 °F /  3.4 °C 29.5 °F /  -1.4 °C 30.20 in /  1022.6 hPa Calm     71 % 0.00 in /  0 mm
21:23 38.1 °F /  3.4 °C 29.9 °F /  -1.2 °C 30.20 in /  1022.6 hPa Calm     72 % 0.00 in /  0 mm
21:28 38.2 °F /  3.4 °C 29.6 °F /  -1.3 °C 30.20 in /  1022.6 hPa Calm     71 % 0.00 in /  0 mm
21:33 38.3 °F /  3.5 °C 29.4 °F /  -1.4 °C 30.20 in /  1022.6 hPa Calm     70 % 0.00 in /  0 mm
21:38 38.4 °F /  3.6 °C 28.8 °F /  -1.8 °C 30.19 in /  1022.2 hPa Calm     68 % 0.00 in /  0 mm
21:43 38.3 °F /  3.5 °C 29.7 °F /  -1.3 °C 30.20 in /  1022.6 hPa Calm     71 % 0.00 in /  0 mm
21:48 37.9 °F /  3.3 °C 29.7 °F /  -1.3 °C 30.20 in /  1022.6 hPa Calm     72 % 0.00 in /  0 mm
21:53 37.5 °F /  3.1 °C 29.6 °F /  -1.3 °C 30.20 in /  1022.6 hPa Calm     73 % 0.00 in /  0 mm
21:58 37.6 °F /  3.1 °C 29.4 °F /  -1.4 °C 30.21 in /  1022.9 hPa Calm     72 % 0.00 in /  0 mm
22:03 37.7 °F /  3.2 °C 28.8 °F /  -1.8 °C 30.20 in /  1022.6 hPa Calm     70 % 0.00 in /  0 mm
22:08 37.9 °F /  3.3 °C 28.6 °F /  -1.9 °C 30.21 in /  1022.9 hPa Calm     69 % 0.00 in /  0 mm
22:09 37.9 °F /  3.3 °C 28.6 °F /  -1.9 °C 30.21 in /  1022.9 hPa Calm     69 % 0.00 in /  0 mm
22:14 37.8 °F /  3.2 °C 28.9 °F /  -1.7 °C 30.21 in /  1022.9 hPa Calm     70 % 0.00 in /  0 mm
22:19 37.8 °F /  3.2 °C 29.2 °F /  -1.6 °C 30.21 in /  1022.9 hPa Calm     71 % 0.00 in /  0 mm
22:24 37.7 °F /  3.2 °C 29.1 °F /  -1.6 °C 30.21 in /  1022.9 hPa Calm     71 % 0.00 in /  0 mm
22:29 37.4 °F /  3 °C 29.2 °F /  -1.6 °C 30.21 in /  1022.9 hPa Calm     72 % 0.00 in /  0 mm
22:34 37.3 °F /  2.9 °C 29.4 °F /  -1.4 °C 30.21 in /  1022.9 hPa Calm     73 % 0.00 in /  0 mm
22:39 37.2 °F /  2.9 °C 28.0 °F /  -2.2 °C 30.21 in /  1022.9 hPa ESE 1.2 mph /  1.9 km/h   69 % 0.00 in /  0 mm
22:44 37.6 °F /  3.1 °C 27.3 °F /  -2.6 °C 30.22 in /  1023.2 hPa Calm     66 % 0.00 in /  0 mm
22:49 37.7 °F /  3.2 °C 27.0 °F /  -2.8 °C 30.22 in /  1023.2 hPa Calm     65 % 0.00 in /  0 mm
22:54 37.5 °F /  3.1 °C 27.5 °F /  -2.5 °C 30.22 in /  1023.2 hPa Calm     67 % 0.00 in /  0 mm
22:59 37.1 °F /  2.8 °C 27.2 °F /  -2.7 °C 30.22 in /  1023.2 hPa Calm     67 % 0.00 in /  0 mm
23:04 37.0 °F /  2.8 °C 27.1 °F /  -2.7 °C 30.22 in /  1023.2 hPa Calm     67 % 0.00 in /  0 mm
23:09 36.8 °F /  2.7 °C 28.3 °F /  -2.1 °C 30.22 in /  1023.2 hPa Calm     71 % 0.00 in /  0 mm
23:14 36.4 °F /  2.4 °C 28.6 °F /  -1.9 °C 30.22 in /  1023.2 hPa Calm     73 % 0.00 in /  0 mm
23:19 36.0 °F /  2.2 °C 28.5 °F /  -1.9 °C 30.22 in /  1023.2 hPa Calm     74 % 0.00 in /  0 mm
23:24 35.6 °F /  2 °C 28.8 °F /  -1.8 °C 30.22 in /  1023.2 hPa Calm     76 % 0.00 in /  0 mm
23:29 35.4 °F /  1.9 °C 28.6 °F /  -1.9 °C 30.22 in /  1023.2 hPa Calm     76 % 0.00 in /  0 mm
23:34 35.3 °F /  1.8 °C 28.5 °F /  -1.9 °C 30.22 in /  1023.2 hPa Calm     76 % 0.00 in /  0 mm
23:39 35.5 °F /  1.9 °C 28.7 °F /  -1.8 °C 30.22 in /  1023.2 hPa Calm     76 % 0.00 in /  0 mm
23:44 35.7 °F /  2.1 °C 28.2 °F /  -2.1 °C 30.23 in /  1023.6 hPa Calm     74 % 0.00 in /  0 mm
23:49 35.6 °F /  2 °C 27.8 °F /  -2.3 °C 30.23 in /  1023.6 hPa Calm     73 % 0.00 in /  0 mm
23:54 35.5 °F /  1.9 °C 27.4 °F /  -2.6 °C 30.23 in /  1023.6 hPa Calm     72 % 0.00 in /  0 mm
23:59 35.4 °F /  1.9 °C 28.3 °F /  -2.1 °C 30.23 in /  1023.6 hPa Calm     75 % 0.00 in /  0 mm
Park Place, Exeter, Tulare County, California, USA
Compliments of Weather Underground - 2.75 mb